Time;durP1;ratioP1;P1;durP2;ratioP2;P2;SDS_P1;SDS_P2;PMS_P1;PMS_P2;Temp;Humidity;BMP_temperature;BMP_pressure;BME280_temperature;BME280_humidity;BME280_pressure;Samples;Min_cycle;Max_cycle;Signal;HPM_P1;HPM_P2
2024/02/04 00:01:58;;;;;;;13.87;8.50;;;;;;;;;;5051091;28;20298;-76
2024/02/04 00:04:25;;;;;;;11.93;9.13;;;;;;;;;;5050735;28;20286;-77
2024/02/04 00:06:54;;;;;;;12.23;9.00;;;;;;;;;;5050768;28;20232;-77
2024/02/04 00:09:22;;;;;;;13.37;9.17;;;;;;;;;;5050983;28;20322;-77
2024/02/04 00:11:50;;;;;;;12.43;8.67;;;;;;;;;;5050810;28;20195;-76
2024/02/04 00:14:17;;;;;;;14.43;9.20;;;;;;;;;;5053843;28;20207;-76
2024/02/04 00:16:44;;;;;;;10.23;8.37;;;;;;;;;;5054419;28;20322;-76
2024/02/04 00:19:11;;;;;;;10.77;8.37;;;;;;;;;;5054672;28;20204;-76
2024/02/04 00:21:38;;;;;;;11.47;8.83;;;;;;;;;;5054254;28;20210;-76
2024/02/04 00:24:07;;;;;;;14.43;9.13;;;;;;;;;;5054448;28;20241;-76
2024/02/04 00:26:34;;;;;;;13.47;8.93;;;;;;;;;;5053816;28;20327;-76
2024/02/04 00:29:01;;;;;;;12.10;8.47;;;;;;;;;;5054117;28;20234;-76
2024/02/04 00:31:28;;;;;;;10.90;8.63;;;;;;;;;;5051846;28;20711;-77
2024/02/04 00:33:56;;;;;;;12.47;8.80;;;;;;;;;;5034146;28;20192;-77
2024/02/04 00:36:23;;;;;;;13.33;9.00;;;;;;;;;;5033687;28;20246;-76
2024/02/04 00:38:50;;;;;;;12.90;9.23;;;;;;;;;;5034382;28;20228;-76
2024/02/04 00:41:19;;;;;;;12.57;9.03;;;;;;;;;;5034135;28;20231;-77
2024/02/04 00:43:46;;;;;;;11.07;8.50;;;;;;;;;;5034450;28;20220;-76
2024/02/04 00:46:13;;;;;;;14.63;10.07;;;;;;;;;;5033879;28;20236;-77
2024/02/04 00:48:41;;;;;;;15.67;10.57;;;;;;;;;;5034234;28;20661;-76
2024/02/04 00:51:08;;;;;;;15.53;11.23;;;;;;;;;;5033241;28;20205;-77
2024/02/04 00:53:35;;;;;;;17.80;11.70;;;;;;;;;;5034161;28;20228;-76
2024/02/04 00:56:03;;;;;;;14.43;10.80;;;;;;;;;;5033711;28;20263;-76
2024/02/04 00:58:31;;;;;;;15.67;11.00;;;;;;;;;;5033359;28;20291;-77
2024/02/04 01:00:58;;;;;;;15.20;10.77;;;;;;;;;;5034084;28;20223;-77
2024/02/04 01:03:25;;;;;;;15.70;11.87;;;;;;;;;;5033164;28;20641;-79
2024/02/04 01:05:53;;;;;;;16.47;12.10;;;;;;;;;;5033443;28;20200;-77
2024/02/04 01:08:20;;;;;;;16.67;11.70;;;;;;;;;;5033636;28;20200;-77
2024/02/04 01:10:47;;;;;;;16.17;11.57;;;;;;;;;;5033708;28;20279;-77
2024/02/04 01:13:14;;;;;;;14.53;11.20;;;;;;;;;;5033708;28;20193;-76
2024/02/04 01:15:43;;;;;;;15.50;11.37;;;;;;;;;;5033414;28;20283;-76
2024/02/04 01:18:10;;;;;;;15.50;10.63;;;;;;;;;;5032847;28;20224;-76
2024/02/04 01:20:37;;;;;;;14.97;10.90;;;;;;;;;;5033484;28;20324;-76
2024/02/04 01:23:05;;;;;;;13.43;10.70;;;;;;;;;;5033810;28;20220;-76
2024/02/04 01:25:32;;;;;;;17.87;11.10;;;;;;;;;;5032333;28;20263;-76
2024/02/04 01:27:59;;;;;;;16.33;11.70;;;;;;;;;;5033463;28;20287;-76
2024/02/04 01:30:26;;;;;;;16.97;11.93;;;;;;;;;;5033303;28;20228;-77
2024/02/04 01:32:55;;;;;;;13.67;10.83;;;;;;;;;;5033330;28;20621;-77
2024/02/04 01:35:23;;;;;;;16.73;12.47;;;;;;;;;;5033539;28;20571;-76
2024/02/04 01:37:50;;;;;;;15.50;11.27;;;;;;;;;;5047073;28;20220;-76
2024/02/04 01:40:17;;;;;;;13.53;11.50;;;;;;;;;;5052845;28;20295;-76
2024/02/04 01:42:45;;;;;;;14.70;10.53;;;;;;;;;;5053033;28;20204;-76
2024/02/04 01:45:12;;;;;;;12.63;10.87;;;;;;;;;;5052527;28;20681;-77
2024/02/04 01:47:39;;;;;;;14.43;10.47;;;;;;;;;;5052388;28;20694;-76
2024/02/04 01:50:08;;;;;;;12.53;10.27;;;;;;;;;;5052980;28;20200;-76
2024/02/04 01:52:37;;;;;;;13.63;10.47;;;;;;;;;;5052873;28;20291;-76
2024/02/04 01:55:06;;;;;;;13.00;9.90;;;;;;;;;;5052714;28;20222;-76
2024/02/04 01:57:34;;;;;;;12.70;10.80;;;;;;;;;;5052751;28;20333;-76
2024/02/04 02:00:02;;;;;;;15.83;11.27;;;;;;;;;;5052608;28;20206;-76
2024/02/04 02:02:30;;;;;;;12.37;11.07;;;;;;;;;;5052471;28;20295;-77
2024/02/04 02:04:57;;;;;;;15.57;11.50;;;;;;;;;;5052456;28;20200;-76
2024/02/04 02:07:27;;;;;;;16.37;11.20;;;;;;;;;;5052432;28;20282;-76
2024/02/04 02:09:54;;;;;;;15.27;11.20;;;;;;;;;;5052532;28;20199;-75
2024/02/04 02:12:25;;;;;;;15.03;11.40;;;;;;;;;;5052560;28;20199;-76
2024/02/04 02:14:58;;;;;;;16.10;12.20;;;;;;;;;;5052148;28;20257;-76
2024/02/04 02:17:26;;;;;;;18.10;13.20;;;;;;;;;;5051726;28;20235;-76
2024/02/04 02:20:07;;;;;;;17.00;12.97;;;;;;;;;;5052278;28;20290;-76
2024/02/04 02:22:39;;;;;;;16.30;12.13;;;;;;;;;;5052320;28;20199;-76
2024/02/04 02:25:09;;;;;;;16.60;12.27;;;;;;;;;;5051830;28;20255;-76
2024/02/04 02:27:36;;;;;;;15.87;12.23;;;;;;;;;;5052225;28;20290;-77
2024/02/04 02:30:05;;;;;;;15.53;12.30;;;;;;;;;;5052074;28;20200;-77
2024/02/04 02:32:32;;;;;;;16.13;12.50;;;;;;;;;;5051507;28;20211;-76
2024/02/04 02:34:59;;;;;;;17.87;11.47;;;;;;;;;;5052107;28;20295;-76
2024/02/04 02:37:29;;;;;;;14.70;12.00;;;;;;;;;;5031928;28;20271;-76
2024/02/04 02:40:00;;;;;;;15.77;11.87;;;;;;;;;;5026358;28;20235;-76
2024/02/04 02:42:28;;;;;;;12.97;10.80;;;;;;;;;;5031918;28;20288;-77
2024/02/04 02:44:56;;;;;;;14.27;10.23;;;;;;;;;;5032201;28;20204;-76
2024/02/04 02:47:24;;;;;;;16.37;10.17;;;;;;;;;;5031844;28;20220;-77
2024/02/04 02:49:52;;;;;;;12.83;9.23;;;;;;;;;;5031821;28;20224;-76
2024/02/04 02:52:20;;;;;;;11.07;8.93;;;;;;;;;;5031956;28;20199;-77
2024/02/04 02:54:47;;;;;;;13.70;9.40;;;;;;;;;;5031670;28;20204;-76
2024/02/04 02:57:14;;;;;;;13.40;9.17;;;;;;;;;;5031564;28;20315;-76
2024/02/04 02:59:43;;;;;;;13.83;8.90;;;;;;;;;;5031320;28;20224;-77
2024/02/04 03:02:11;;;;;;;10.83;8.27;;;;;;;;;;5031604;28;20232;-76
2024/02/04 03:04:38;;;;;;;13.00;8.87;;;;;;;;;;5031472;28;20204;-76
2024/02/04 03:07:07;;;;;;;13.03;8.83;;;;;;;;;;5031356;28;20204;-76
2024/02/04 03:09:34;;;;;;;13.63;8.93;;;;;;;;;;5031476;28;20196;-76
2024/02/04 03:12:01;;;;;;;15.03;9.53;;;;;;;;;;5031696;28;20193;-76
2024/02/04 03:14:28;;;;;;;15.57;9.23;;;;;;;;;;5031129;28;20249;-76
2024/02/04 03:16:57;;;;;;;15.13;10.13;;;;;;;;;;5031504;28;20231;-76
2024/02/04 03:19:24;;;;;;;12.27;9.60;;;;;;;;;;5031023;28;20658;-76
2024/02/04 03:21:51;;;;;;;14.93;10.17;;;;;;;;;;5031235;28;20204;-76
2024/02/04 03:24:18;;;;;;;14.27;11.03;;;;;;;;;;5031267;28;20640;-77
2024/02/04 03:26:46;;;;;;;14.63;11.03;;;;;;;;;;5031116;28;20231;-76
2024/02/04 03:29:13;;;;;;;15.40;12.10;;;;;;;;;;5031224;28;20287;-76
2024/02/04 03:31:40;;;;;;;16.57;11.67;;;;;;;;;;5030904;28;20819;-76
2024/02/04 03:34:08;;;;;;;17.23;11.53;;;;;;;;;;5031577;28;20199;-75
2024/02/04 03:36:38;;;;;;;15.20;10.40;;;;;;;;;;5035285;28;20228;-76
2024/02/04 03:39:05;;;;;;;16.07;11.10;;;;;;;;;;5050822;28;20885;-77
2024/02/04 03:41:32;;;;;;;13.37;10.60;;;;;;;;;;5051137;28;20291;-77
2024/02/04 03:44:00;;;;;;;16.67;10.83;;;;;;;;;;5050992;28;20306;-76
2024/02/04 03:46:27;;;;;;;17.17;11.27;;;;;;;;;;5050411;28;20192;-76
2024/02/04 03:48:54;;;;;;;15.60;11.37;;;;;;;;;;5053172;28;20200;-76
2024/02/04 03:51:22;;;;;;;14.63;11.90;;;;;;;;;;5055045;28;20219;-76
2024/02/04 03:53:50;;;;;;;15.97;11.97;;;;;;;;;;5055273;28;20223;-76
2024/02/04 03:56:17;;;;;;;14.87;11.30;;;;;;;;;;5054764;28;20286;-76
2024/02/04 03:58:45;;;;;;;13.30;11.07;;;;;;;;;;5054575;28;20326;-76
2024/02/04 04:01:12;;;;;;;15.17;11.30;;;;;;;;;;5055115;28;20207;-76
2024/02/04 04:03:41;;;;;;;15.60;11.00;;;;;;;;;;5054667;28;20249;-76
2024/02/04 04:06:08;;;;;;;17.20;11.43;;;;;;;;;;5054652;28;20202;-76
2024/02/04 04:08:37;;;;;;;15.17;11.40;;;;;;;;;;5054767;28;20196;-76
2024/02/04 04:11:04;;;;;;;16.03;11.13;;;;;;;;;;5054555;28;20571;-76
2024/02/04 04:13:32;;;;;;;16.50;10.87;;;;;;;;;;5054745;28;20206;-76
2024/02/04 04:15:59;;;;;;;15.17;10.77;;;;;;;;;;5054458;28;20200;-76
2024/02/04 04:18:26;;;;;;;16.33;11.60;;;;;;;;;;5054187;28;20237;-76
2024/02/04 04:20:53;;;;;;;12.77;10.63;;;;;;;;;;5054657;28;20283;-78
2024/02/04 04:23:20;;;;;;;13.73;10.50;;;;;;;;;;5054392;28;20294;-77
2024/02/04 04:25:49;;;;;;;14.47;10.07;;;;;;;;;;5054360;28;20307;-77
2024/02/04 04:28:16;;;;;;;15.33;9.73;;;;;;;;;;5054130;28;20218;-76
2024/02/04 04:30:43;;;;;;;12.30;9.13;;;;;;;;;;5053923;28;20735;-77
2024/02/04 04:33:11;;;;;;;14.20;9.53;;;;;;;;;;5053723;28;20700;-76
2024/02/04 04:35:39;;;;;;;14.67;9.27;;;;;;;;;;5054564;28;20238;-76
2024/02/04 04:38:06;;;;;;;14.27;8.60;;;;;;;;;;5054263;28;20752;-77
2024/02/04 04:40:33;;;;;;;15.77;8.47;;;;;;;;;;5054074;28;20195;-76
2024/02/04 04:43:02;;;;;;;18.83;8.60;;;;;;;;;;5053603;28;20294;-76
2024/02/04 04:45:29;;;;;;;11.93;6.83;;;;;;;;;;5054154;28;20238;-76
2024/02/04 04:47:56;;;;;;;13.10;6.37;;;;;;;;;;5053793;28;20299;-77
2024/02/04 04:50:23;;;;;;;11.37;5.70;;;;;;;;;;5053891;28;20199;-76
2024/02/04 04:52:50;;;;;;;14.40;5.60;;;;;;;;;;5053892;28;20203;-76
2024/02/04 04:55:18;;;;;;;17.33;6.20;;;;;;;;;;5053608;28;20255;-76
2024/02/04 04:57:45;;;;;;;13.23;6.07;;;;;;;;;;5053496;28;20327;-76
2024/02/04 05:00:15;;;;;;;14.30;6.40;;;;;;;;;;5052664;28;20296;-77
2024/02/04 05:02:43;;;;;;;16.63;7.03;;;;;;;;;;5053977;28;20577;-77
2024/02/04 05:05:11;;;;;;;12.03;7.93;;;;;;;;;;5053647;28;20229;-77
2024/02/04 05:07:39;;;;;;;16.40;9.27;;;;;;;;;;5027159;28;20232;-76
2024/02/04 05:10:06;;;;;;;14.50;8.33;;;;;;;;;;5013419;28;20209;-76
2024/02/04 05:12:34;;;;;;;14.10;8.20;;;;;;;;;;5013956;28;20292;-77
2024/02/04 05:15:01;;;;;;;13.17;8.53;;;;;;;;;;5013750;28;20288;-76
2024/02/04 05:17:31;;;;;;;13.73;8.87;;;;;;;;;;5013852;28;20217;-76
2024/02/04 05:19:58;;;;;;;13.23;9.47;;;;;;;;;;5013556;28;20523;-76
2024/02/04 05:22:26;;;;;;;15.40;10.37;;;;;;;;;;5013906;28;20296;-77
2024/02/04 05:24:53;;;;;;;15.83;11.00;;;;;;;;;;5013181;28;20263;-77
2024/02/04 05:27:20;;;;;;;19.57;11.60;;;;;;;;;;5013685;28;20280;-76
2024/02/04 05:29:47;;;;;;;19.27;11.87;;;;;;;;;;5013319;28;20288;-76
2024/02/04 05:32:14;;;;;;;15.77;11.70;;;;;;;;;;5013764;28;20219;-75
2024/02/04 05:34:43;;;;;;;14.20;11.43;;;;;;;;;;5013630;28;20219;-76
2024/02/04 05:37:10;;;;;;;16.53;12.27;;;;;;;;;;5021978;28;20296;-77
2024/02/04 05:39:37;;;;;;;16.63;11.93;;;;;;;;;;5032699;28;20209;-76
2024/02/04 05:42:05;;;;;;;18.53;12.27;;;;;;;;;;5033035;28;21323;-76
2024/02/04 05:44:32;;;;;;;17.03;12.63;;;;;;;;;;5033069;28;21016;-76
2024/02/04 05:46:59;;;;;;;14.67;11.87;;;;;;;;;;5033145;28;20276;-77
2024/02/04 05:49:26;;;;;;;16.17;12.50;;;;;;;;;;5032901;28;20201;-76
2024/02/04 05:51:55;;;;;;;19.40;12.43;;;;;;;;;;5032876;28;20240;-76
2024/02/04 05:54:22;;;;;;;16.83;11.37;;;;;;;;;;5032790;28;20639;-76
2024/02/04 05:56:49;;;;;;;16.80;11.47;;;;;;;;;;5032627;28;20780;-76
2024/02/04 05:59:17;;;;;;;15.47;10.80;;;;;;;;;;5032398;28;20715;-76
2024/02/04 06:01:44;;;;;;;13.20;10.63;;;;;;;;;;5032785;28;20214;-76
2024/02/04 06:04:11;;;;;;;17.33;11.30;;;;;;;;;;5032246;28;20201;-76
2024/02/04 06:06:39;;;;;;;17.23;10.80;;;;;;;;;;5032536;28;20819;-76
2024/02/04 06:09:08;;;;;;;18.73;11.43;;;;;;;;;;5032018;28;20678;-77
2024/02/04 06:11:35;;;;;;;15.83;10.40;;;;;;;;;;5032289;28;20227;-77
2024/02/04 06:14:02;;;;;;;17.33;9.70;;;;;;;;;;5032359;28;20291;-77
2024/02/04 06:16:29;;;;;;;18.47;9.30;;;;;;;;;;5032467;28;20291;-77
2024/02/04 06:18:58;;;;;;;15.87;8.50;;;;;;;;;;5032287;28;20232;-77
2024/02/04 06:21:25;;;;;;;14.27;8.73;;;;;;;;;;5032529;28;20299;-76
2024/02/04 06:23:52;;;;;;;17.53;8.37;;;;;;;;;;5031611;28;20204;-77
2024/02/04 06:26:20;;;;;;;14.60;8.97;;;;;;;;;;5012212;28;20328;-76
2024/02/04 06:28:48;;;;;;;17.57;9.40;;;;;;;;;;5012410;28;20300;-76
2024/02/04 06:31:16;;;;;;;17.07;9.10;;;;;;;;;;5012605;28;20228;-77
2024/02/04 06:33:43;;;;;;;16.07;9.43;;;;;;;;;;5012273;28;20329;-76
2024/02/04 06:36:10;;;;;;;18.17;9.47;;;;;;;;;;5012641;28;20661;-77
2024/02/04 06:38:38;;;;;;;12.83;8.93;;;;;;;;;;5031366;28;20232;-76
2024/02/04 06:41:05;;;;;;;17.90;9.30;;;;;;;;;;5032123;28;20634;-77
2024/02/04 06:43:33;;;;;;;16.90;9.50;;;;;;;;;;5032135;28;20287;-76
2024/02/04 06:46:01;;;;;;;17.23;9.37;;;;;;;;;;5031921;28;20327;-77
2024/02/04 06:48:28;;;;;;;16.60;8.27;;;;;;;;;;5031686;28;20224;-77
2024/02/04 06:50:55;;;;;;;15.57;8.00;;;;;;;;;;5032073;28;20227;-78
2024/02/04 06:53:22;;;;;;;17.13;7.20;;;;;;;;;;5031569;28;20211;-77
2024/02/04 06:55:49;;;;;;;13.60;7.13;;;;;;;;;;5031748;28;20204;-77
2024/02/04 06:58:17;;;;;;;15.93;6.70;;;;;;;;;;5031485;28;20323;-76
2024/02/04 07:00:45;;;;;;;14.23;6.57;;;;;;;;;;5031666;28;20224;-76
2024/02/04 07:03:12;;;;;;;14.93;6.37;;;;;;;;;;5031479;28;20287;-76
2024/02/04 07:05:39;;;;;;;14.60;6.37;;;;;;;;;;5031923;28;20287;-76
2024/02/04 07:08:07;;;;;;;13.07;6.13;;;;;;;;;;5030688;28;20238;-76
2024/02/04 07:10:34;;;;;;;18.57;5.70;;;;;;;;;;5031587;28;20204;-76
2024/02/04 07:13:01;;;;;;;16.23;5.53;;;;;;;;;;5031093;28;20239;-77
2024/02/04 07:15:29;;;;;;;15.10;5.83;;;;;;;;;;5031362;28;20250;-76
2024/02/04 07:17:57;;;;;;;19.77;6.20;;;;;;;;;;5031099;28;20279;-76
2024/02/04 07:20:24;;;;;;;14.17;6.27;;;;;;;;;;5031247;28;20224;-77
2024/02/04 07:22:52;;;;;;;16.47;5.70;;;;;;;;;;5030994;28;20280;-76
2024/02/04 07:25:20;;;;;;;16.13;5.10;;;;;;;;;;5030800;28;20311;-76
2024/02/04 07:27:47;;;;;;;13.93;4.73;;;;;;;;;;5031463;28;20201;-77
2024/02/04 07:30:14;;;;;;;15.30;4.30;;;;;;;;;;5031372;28;20207;-77
2024/02/04 07:32:41;;;;;;;12.83;3.80;;;;;;;;;;5031403;28;20231;-76
2024/02/04 07:35:10;;;;;;;9.67;3.63;;;;;;;;;;5031120;28;20296;-77
2024/02/04 07:37:37;;;;;;;12.37;4.00;;;;;;;;;;5043499;28;20295;-76
2024/02/04 07:40:06;;;;;;;12.63;4.00;;;;;;;;;;5051032;28;20259;-76
2024/02/04 07:42:33;;;;;;;13.63;3.87;;;;;;;;;;5051025;28;20196;-77
2024/02/04 07:45:01;;;;;;;8.70;3.50;;;;;;;;;;5051012;28;20200;-76
2024/02/04 07:47:28;;;;;;;13.17;3.80;;;;;;;;;;5051277;28;20664;-77
2024/02/04 07:49:55;;;;;;;15.13;3.97;;;;;;;;;;5050715;28;20212;-76
2024/02/04 07:52:24;;;;;;;14.27;3.77;;;;;;;;;;5051277;28;20291;-76
2024/02/04 07:54:51;;;;;;;11.60;3.90;;;;;;;;;;5050656;28;20294;-76
2024/02/04 07:57:18;;;;;;;13.73;3.73;;;;;;;;;;5050830;28;20206;-76
2024/02/04 07:59:45;;;;;;;13.40;3.90;;;;;;;;;;5051320;28;20262;-77
2024/02/04 08:02:12;;;;;;;10.40;4.00;;;;;;;;;;5050826;28;20235;-77
2024/02/04 08:04:41;;;;;;;15.87;3.70;;;;;;;;;;5050047;28;20287;-77
2024/02/04 08:07:08;;;;;;;10.90;3.90;;;;;;;;;;5050997;28;20282;-76
2024/02/04 08:09:37;;;;;;;9.03;3.70;;;;;;;;;;5050422;28;20963;-77
2024/02/04 08:12:04;;;;;;;14.87;4.43;;;;;;;;;;5050878;28;20226;-76
2024/02/04 08:14:31;;;;;;;11.47;4.00;;;;;;;;;;5050831;28;20589;-76
2024/02/04 08:16:58;;;;;;;10.17;4.07;;;;;;;;;;5050492;28;20238;-77
2024/02/04 08:19:26;;;;;;;12.23;4.20;;;;;;;;;;5050126;28;20819;-77
2024/02/04 08:21:53;;;;;;;12.77;4.30;;;;;;;;;;5051203;28;20295;-77
2024/02/04 08:24:20;;;;;;;15.10;4.63;;;;;;;;;;5050443;28;20287;-76
2024/02/04 08:26:48;;;;;;;15.50;4.43;;;;;;;;;;5050531;28;20196;-77
2024/02/04 08:29:16;;;;;;;11.13;4.43;;;;;;;;;;5050315;28;20230;-77
2024/02/04 08:31:43;;;;;;;13.80;4.40;;;;;;;;;;5022888;28;20296;-76
2024/02/04 08:34:10;;;;;;;15.07;5.77;;;;;;;;;;5011132;28;20610;-77
2024/02/04 08:36:37;;;;;;;17.80;6.27;;;;;;;;;;5019201;28;20204;-76
2024/02/04 08:39:04;;;;;;;14.10;5.33;;;;;;;;;;5033919;28;20311;-75
2024/02/04 08:41:32;;;;;;;11.33;5.27;;;;;;;;;;5034089;28;20287;-77
2024/02/04 08:44:00;;;;;;;14.80;5.20;;;;;;;;;;5034118;28;20287;-76
2024/02/04 08:46:27;;;;;;;15.97;5.10;;;;;;;;;;5034852;28;20199;-77
2024/02/04 08:48:55;;;;;;;15.27;5.17;;;;;;;;;;5033947;28;20206;-77
2024/02/04 08:51:22;;;;;;;15.17;5.37;;;;;;;;;;5033936;28;20197;-77
2024/02/04 08:53:49;;;;;;;14.07;5.77;;;;;;;;;;5034171;28;20247;-78
2024/02/04 08:56:16;;;;;;;16.53;5.93;;;;;;;;;;5033793;28;20291;-76
2024/02/04 08:58:43;;;;;;;17.27;6.10;;;;;;;;;;5032392;28;20263;-76
2024/02/04 09:01:12;;;;;;;15.03;6.20;;;;;;;;;;5026921;28;20224;-78
2024/02/04 09:03:39;;;;;;;16.63;6.10;;;;;;;;;;5033636;28;20295;-77
2024/02/04 09:06:06;;;;;;;16.03;5.60;;;;;;;;;;5034073;28;20291;-78
2024/02/04 09:08:34;;;;;;;17.47;6.57;;;;;;;;;;5033372;28;20779;-76
2024/02/04 09:11:01;;;;;;;18.40;7.30;;;;;;;;;;5020491;28;20674;-77
2024/02/04 09:13:28;;;;;;;12.20;4.70;;;;;;;;;;5013686;28;20644;-77
2024/02/04 09:15:55;;;;;;;12.83;4.83;;;;;;;;;;5024632;28;20646;-77
2024/02/04 09:18:24;;;;;;;11.93;4.50;;;;;;;;;;5032481;28;20749;-78
2024/02/04 09:20:51;;;;;;;13.10;5.17;;;;;;;;;;5033623;28;20231;-78
2024/02/04 09:23:18;;;;;;;13.87;5.23;;;;;;;;;;5033758;28;20239;-77
2024/02/04 09:25:45;;;;;;;18.77;5.97;;;;;;;;;;5033278;28;20319;-76
2024/02/04 09:28:12;;;;;;;13.30;5.73;;;;;;;;;;5033291;28;20712;-76
2024/02/04 09:52:08;;;;;;;17.23;4.90;;;;;;;;;;5078824;22;20241;-76
2024/02/04 09:54:39;;;;;;;13.77;4.77;;;;;;;;;;5071254;28;20682;-77
2024/02/04 09:57:07;;;;;;;16.97;5.27;;;;;;;;;;5070145;28;20195;-76
2024/02/04 09:59:35;;;;;;;14.57;5.03;;;;;;;;;;5072509;28;20285;-77
2024/02/04 10:02:03;;;;;;;14.63;4.43;;;;;;;;;;5065587;28;20634;-76
2024/02/04 10:04:30;;;;;;;13.63;4.40;;;;;;;;;;5072373;28;20206;-76
2024/02/04 10:06:57;;;;;;;21.27;5.50;;;;;;;;;;5072751;28;20285;-76
2024/02/04 10:09:26;;;;;;;13.70;4.90;;;;;;;;;;5069522;28;20300;-77
2024/02/04 10:11:53;;;;;;;10.10;4.37;;;;;;;;;;5069244;28;20242;-76
2024/02/04 10:14:20;;;;;;;10.97;4.43;;;;;;;;;;5067973;28;20278;-77
2024/02/04 10:16:47;;;;;;;16.77;4.57;;;;;;;;;;5069479;28;20278;-77
2024/02/04 10:19:14;;;;;;;17.77;4.50;;;;;;;;;;5067950;28;20323;-77
2024/02/04 10:21:42;;;;;;;12.43;3.97;;;;;;;;;;5069660;28;20703;-77
2024/02/04 10:24:09;;;;;;;14.80;4.23;;;;;;;;;;5057908;28;20270;-77
2024/02/04 10:26:40;;;;;;;11.53;3.70;;;;;;;;;;5061043;28;20245;-76
2024/02/04 10:29:08;;;;;;;13.00;4.27;;;;;;;;;;5068405;28;20199;-78
2024/02/04 10:31:35;;;;;;;13.33;3.73;;;;;;;;;;5055026;28;20231;-76
2024/02/04 10:34:02;;;;;;;12.10;4.43;;;;;;;;;;5065154;28;20199;-78
2024/02/04 10:36:32;;;;;;;12.83;3.83;;;;;;;;;;5064523;28;20199;-76
2024/02/04 10:38:59;;;;;;;16.27;3.80;;;;;;;;;;5071394;28;20225;-77
2024/02/04 10:41:27;;;;;;;16.37;4.37;;;;;;;;;;5055320;28;20295;-78
2024/02/04 10:43:56;;;;;;;13.13;3.93;;;;;;;;;;5054483;28;20222;-78
2024/02/04 10:46:24;;;;;;;11.77;3.37;;;;;;;;;;5056489;28;20231;-77
2024/02/04 10:48:54;;;;;;;12.20;3.60;;;;;;;;;;5063880;28;20656;-78
2024/02/04 10:51:23;;;;;;;13.23;4.30;;;;;;;;;;5055231;28;20322;-78
2024/02/04 10:53:51;;;;;;;10.70;4.43;;;;;;;;;;5054581;28;20192;-78
2024/02/04 10:56:21;;;;;;;13.13;4.57;;;;;;;;;;5065241;28;20191;-77
2024/02/04 10:58:49;;;;;;;15.93;4.53;;;;;;;;;;5052298;28;20234;-78
2024/02/04 11:01:18;;;;;;;17.07;5.33;;;;;;;;;;5059691;28;20274;-78
2024/02/04 11:03:45;;;;;;;14.97;5.43;;;;;;;;;;5067791;28;20225;-78
2024/02/04 11:06:13;;;;;;;14.97;5.43;;;;;;;;;;5063063;28;20741;-78
2024/02/04 11:08:40;;;;;;;18.23;6.40;;;;;;;;;;5059681;28;20245;-77
2024/02/04 11:11:07;;;;;;;18.33;6.00;;;;;;;;;;5064001;28;20617;-79
2024/02/04 11:13:35;;;;;;;15.20;5.33;;;;;;;;;;5057078;28;20250;-78
2024/02/04 11:16:06;;;;;;;14.63;5.63;;;;;;;;;;5061287;28;20203;-78
2024/02/04 11:18:44;;;;;;;17.53;5.60;;;;;;;;;;5063759;28;20579;-78
2024/02/04 11:21:26;;;;;;;17.20;5.77;;;;;;;;;;5059771;28;20711;-80
2024/02/04 11:24:00;;;;;;;13.63;5.10;;;;;;;;;;5059628;28;20201;-79
2024/02/04 11:26:28;;;;;;;16.57;5.47;;;;;;;;;;5065711;28;20279;-78
2024/02/04 11:28:56;;;;;;;14.00;4.60;;;;;;;;;;5060052;28;20664;-79
2024/02/04 11:31:23;;;;;;;14.27;5.13;;;;;;;;;;5057173;28;20302;-79
2024/02/04 11:33:53;;;;;;;14.50;4.17;;;;;;;;;;5053393;28;20287;-79
2024/02/04 11:36:25;;;;;;;13.80;4.73;;;;;;;;;;5056809;28;20283;-80
2024/02/04 11:38:53;;;;;;;15.20;4.63;;;;;;;;;;5065145;28;20199;-79
2024/02/04 11:41:24;;;;;;;15.70;4.30;;;;;;;;;;5063286;28;20233;-79
2024/02/04 11:43:53;;;;;;;15.47;3.87;;;;;;;;;;5063806;28;20195;-80
2024/02/04 11:46:21;;;;;;;13.43;4.43;;;;;;;;;;5065302;28;20202;-79
2024/02/04 11:48:54;;;;;;;14.43;4.80;;;;;;;;;;5067796;28;20207;-80
2024/02/04 11:51:24;;;;;;;15.87;4.83;;;;;;;;;;5057809;28;20284;-80
2024/02/04 11:53:51;;;;;;;19.23;4.87;;;;;;;;;;5050797;28;20199;-80
2024/02/04 11:56:18;;;;;;;13.03;4.70;;;;;;;;;;5050183;28;20286;-80
2024/02/04 11:58:46;;;;;;;16.40;4.30;;;;;;;;;;5067963;28;20282;-79
2024/02/04 12:01:13;;;;;;;17.63;4.07;;;;;;;;;;5071243;28;20266;-79
2024/02/04 12:03:40;;;;;;;12.27;4.00;;;;;;;;;;5070717;28;20205;-80
2024/02/04 12:06:10;;;;;;;12.77;4.40;;;;;;;;;;5055026;28;20281;-81
2024/02/04 12:08:37;;;;;;;13.80;4.97;;;;;;;;;;5058147;28;20211;-80
2024/02/04 12:11:05;;;;;;;17.50;4.43;;;;;;;;;;5063251;28;20711;-80
2024/02/04 12:13:37;;;;;;;10.03;4.00;;;;;;;;;;5067061;28;20195;-80
2024/02/04 12:16:05;;;;;;;15.33;4.80;;;;;;;;;;5064034;28;20322;-79
2024/02/04 12:18:32;;;;;;;16.03;3.83;;;;;;;;;;5063578;28;20199;-81
2024/02/04 12:20:59;;;;;;;11.43;3.63;;;;;;;;;;5074596;28;20610;-79
2024/02/04 12:23:29;;;;;;;12.90;4.07;;;;;;;;;;5074523;28;20222;-80
2024/02/04 12:25:56;;;;;;;18.37;4.37;;;;;;;;;;5073345;28;20195;-78
2024/02/04 12:28:24;;;;;;;15.47;4.43;;;;;;;;;;5074105;28;20195;-80
2024/02/04 12:30:55;;;;;;;13.60;4.67;;;;;;;;;;5074671;28;20227;-80
2024/02/04 12:33:22;;;;;;;15.93;4.33;;;;;;;;;;5074113;28;20199;-79
2024/02/04 12:35:55;;;;;;;16.10;4.60;;;;;;;;;;5074170;28;20737;-79
2024/02/04 12:38:23;;;;;;;11.20;4.00;;;;;;;;;;5073120;28;20194;-79
2024/02/04 12:40:51;;;;;;;13.57;4.00;;;;;;;;;;5073952;28;20231;-80
2024/02/04 12:43:18;;;;;;;17.10;4.37;;;;;;;;;;5073856;28;20756;-79
2024/02/04 12:45:46;;;;;;;16.17;4.00;;;;;;;;;;5074042;28;20278;-79
2024/02/04 12:48:15;;;;;;;12.50;4.07;;;;;;;;;;5074062;28;20202;-78
2024/02/04 12:50:43;;;;;;;15.27;3.90;;;;;;;;;;5057188;28;20223;-79
2024/02/04 12:53:11;;;;;;;13.70;4.17;;;;;;;;;;5053639;28;20227;-79
2024/02/04 12:55:39;;;;;;;15.57;4.40;;;;;;;;;;5054282;28;20208;-79
2024/02/04 12:58:08;;;;;;;17.40;5.10;;;;;;;;;;5070055;28;20282;-80
2024/02/04 13:00:36;;;;;;;15.73;4.80;;;;;;;;;;5067030;28;20236;-80
2024/02/04 13:03:03;;;;;;;18.10;5.10;;;;;;;;;;5056681;28;20204;-79
2024/02/04 13:05:31;;;;;;;13.23;5.03;;;;;;;;;;5062438;28;20734;-80
2024/02/04 13:08:01;;;;;;;24.17;6.67;;;;;;;;;;5061465;28;20207;-79
2024/02/04 13:10:30;;;;;;;19.63;6.00;;;;;;;;;;5068228;28;20227;-80
2024/02/04 13:13:01;;;;;;;14.70;5.87;;;;;;;;;;5067004;28;20314;-81
2024/02/04 13:15:31;;;;;;;16.83;4.97;;;;;;;;;;5062926;28;20238;-80
2024/02/04 13:17:58;;;;;;;17.37;4.83;;;;;;;;;;5067637;28;20203;-81
2024/02/04 13:20:26;;;;;;;17.27;5.27;;;;;;;;;;5059263;28;20228;-79
2024/02/04 13:22:54;;;;;;;16.70;6.13;;;;;;;;;;5058592;28;20228;-80
2024/02/04 13:25:21;;;;;;;19.20;5.40;;;;;;;;;;5064269;28;20294;-80
2024/02/04 13:27:49;;;;;;;16.70;5.70;;;;;;;;;;5068392;28;20199;-80
2024/02/04 13:30:16;;;;;;;12.80;4.67;;;;;;;;;;5068306;28;20207;-80
2024/02/04 13:32:45;;;;;;;18.97;5.67;;;;;;;;;;5068555;28;20235;-80
2024/02/04 13:35:12;;;;;;;15.30;4.83;;;;;;;;;;5065064;28;20226;-79
2024/02/04 13:37:40;;;;;;;15.50;3.97;;;;;;;;;;5058415;28;20196;-80
2024/02/04 13:40:08;;;;;;;16.00;4.30;;;;;;;;;;5059575;28;20657;-81
2024/02/04 13:42:36;;;;;;;15.17;4.60;;;;;;;;;;5070485;28;20222;-80
2024/02/04 13:45:04;;;;;;;11.93;4.00;;;;;;;;;;5072272;28;20252;-80
2024/02/04 13:47:31;;;;;;;16.17;4.60;;;;;;;;;;5072920;28;20628;-79
2024/02/04 13:49:59;;;;;;;15.97;4.83;;;;;;;;;;5056071;28;20294;-80
2024/02/04 13:52:27;;;;;;;22.63;5.27;;;;;;;;;;5068352;28;20235;-80
2024/02/04 13:54:54;;;;;;;14.47;4.10;;;;;;;;;;5064043;28;20701;-79
2024/02/04 13:57:21;;;;;;;15.70;4.43;;;;;;;;;;5065323;28;20277;-80
2024/02/04 13:59:48;;;;;;;19.80;5.17;;;;;;;;;;5069656;28;20231;-79
2024/02/04 14:02:15;;;;;;;19.63;5.17;;;;;;;;;;5064468;28;20198;-80
2024/02/04 14:04:42;;;;;;;16.90;5.00;;;;;;;;;;5066362;28;20223;-79
2024/02/04 14:07:11;;;;;;;15.70;4.47;;;;;;;;;;5061341;28;20222;-80
2024/02/04 14:09:38;;;;;;;21.47;4.70;;;;;;;;;;5059947;28;20200;-83
2024/02/04 14:12:06;;;;;;;17.80;4.47;;;;;;;;;;5067613;28;20232;-80
2024/02/04 14:14:33;;;;;;;21.13;4.67;;;;;;;;;;5067374;28;20223;-80
2024/02/04 14:17:00;;;;;;;19.13;5.40;;;;;;;;;;5059839;28;20227;-82
2024/02/04 14:19:27;;;;;;;17.17;5.13;;;;;;;;;;5059897;28;20290;-80
2024/02/04 14:21:54;;;;;;;16.33;4.73;;;;;;;;;;5051706;28;20319;-81
2024/02/04 14:24:23;;;;;;;18.20;5.03;;;;;;;;;;5063909;28;20195;-81
2024/02/04 14:26:50;;;;;;;21.33;6.20;;;;;;;;;;5065574;28;20644;-80
2024/02/04 14:29:17;;;;;;;16.23;5.17;;;;;;;;;;5064967;28;20361;-80
2024/02/04 14:31:45;;;;;;;22.03;4.83;;;;;;;;;;5059490;28;20227;-81
2024/02/04 14:34:12;;;;;;;16.77;5.00;;;;;;;;;;5052567;28;20253;-80
2024/02/04 14:36:39;;;;;;;16.10;5.43;;;;;;;;;;5051250;28;20211;-80
2024/02/04 14:39:06;;;;;;;19.37;5.97;;;;;;;;;;5051520;28;20295;-79
2024/02/04 14:41:37;;;;;;;20.53;5.97;;;;;;;;;;5051393;28;20735;-79
2024/02/04 14:44:04;;;;;;;20.57;6.20;;;;;;;;;;5051704;28;20202;-79
2024/02/04 14:46:31;;;;;;;20.07;5.40;;;;;;;;;;5051607;28;20291;-80
2024/02/04 14:48:59;;;;;;;19.90;5.13;;;;;;;;;;5066857;28;20203;-80
2024/02/04 14:51:26;;;;;;;18.67;5.07;;;;;;;;;;5070750;28;20304;-79